createdAt,value
2023-04-09T00:00:35.194Z,1.60
2023-04-09T00:01:58.295Z,1.30
2023-04-09T00:02:35.214Z,1.70
2023-04-09T00:03:36.484Z,4.20
2023-04-09T00:04:35.199Z,1.90
2023-04-09T00:05:35.355Z,1.40
2023-04-09T00:06:35.115Z,1.90
2023-04-09T00:07:35.270Z,1.70
2023-04-09T00:08:35.095Z,1.20
2023-04-09T00:09:35.391Z,1.40
2023-04-09T00:10:35.104Z,1.10
2023-04-09T00:11:36.227Z,4.20
2023-04-09T00:12:35.057Z,4.30
2023-04-09T00:13:39.196Z,4.30
2023-04-09T00:14:35.121Z,4.50
2023-04-09T00:15:35.429Z,0.70
2023-04-09T00:16:35.126Z,1.40
2023-04-09T00:17:35.194Z,1.00
2023-04-09T00:18:35.061Z,1.10
2023-04-09T00:19:35.147Z,1.70
2023-04-09T00:20:34.985Z,0.90
2023-04-09T00:21:35.166Z,2.40
2023-04-09T00:22:34.952Z,3.90
2023-04-09T00:23:35.231Z,4.70
2023-04-09T00:24:34.952Z,4.70
2023-04-09T00:25:35.203Z,5.10
2023-04-09T00:26:34.922Z,1.40
2023-04-09T00:27:35.190Z,1.50
2023-04-09T00:28:35.005Z,1.50
2023-04-09T00:29:35.299Z,1.80
2023-04-09T00:30:34.962Z,1.20
2023-04-09T00:31:35.209Z,1.30
2023-04-09T00:32:34.863Z,3.90
2023-04-09T00:33:35.062Z,4.20
2023-04-09T00:34:34.832Z,4.70
2023-04-09T00:35:35.036Z,5.10
2023-04-09T00:36:34.833Z,1.70
2023-04-09T00:37:35.905Z,0.80
2023-04-09T00:38:34.800Z,1.60
2023-04-09T00:39:34.939Z,1.50
2023-04-09T00:40:34.832Z,2.60
2023-04-09T00:41:35.971Z,0.90
2023-04-09T00:42:34.777Z,2.10
2023-04-09T00:43:36.808Z,2.50
2023-04-09T00:44:34.722Z,1.30
2023-04-09T00:45:34.768Z,4.20
2023-04-09T00:46:34.712Z,4.90
2023-04-09T00:47:34.776Z,5.00
2023-04-09T00:48:34.704Z,4.90
2023-04-09T00:49:34.792Z,4.60
2023-04-09T00:50:34.704Z,5.00
2023-04-09T00:51:34.773Z,1.20
2023-04-09T00:52:34.646Z,1.40
2023-04-09T00:53:34.692Z,2.10
2023-04-09T00:54:34.624Z,1.40
2023-04-09T00:55:34.700Z,1.90
2023-04-09T00:56:34.622Z,1.30
2023-04-09T00:57:34.714Z,4.50
2023-04-09T00:58:34.589Z,5.50
2023-04-09T00:59:34.625Z,5.10
2023-04-09T01:00:34.563Z,5.40
2023-04-09T01:01:34.772Z,4.80
2023-04-09T01:02:34.773Z,5.50
2023-04-09T01:03:34.888Z,0.90
2023-04-09T01:04:34.523Z,0.60
2023-04-09T01:05:34.560Z,1.10
2023-04-09T01:06:34.501Z,0.70
2023-04-09T01:07:34.597Z,1.60
2023-04-09T01:08:34.488Z,2.20
2023-04-09T01:09:34.633Z,2.00
2023-04-09T01:10:34.460Z,4.30
2023-04-09T01:11:34.489Z,4.10
2023-04-09T01:12:34.436Z,5.20
2023-04-09T01:13:34.507Z,4.50
2023-04-09T01:14:34.430Z,4.30
2023-04-09T01:15:34.536Z,1.00
2023-04-09T01:16:34.419Z,1.50
2023-04-09T01:17:34.454Z,1.20
2023-04-09T01:18:34.380Z,1.50
2023-04-09T01:19:34.490Z,1.40
2023-04-09T01:20:34.343Z,1.40
2023-04-09T01:21:34.476Z,4.10
2023-04-09T01:22:34.730Z,5.30
2023-04-09T01:23:34.385Z,4.80
2023-04-09T01:24:34.311Z,4.50
2023-04-09T01:25:34.394Z,5.20
2023-04-09T01:26:34.291Z,0.40
2023-04-09T01:27:34.420Z,1.00
2023-04-09T01:28:34.293Z,0.90
2023-04-09T01:29:34.331Z,1.90
2023-04-09T01:30:34.306Z,1.70
2023-04-09T01:31:35.387Z,1.90
2023-04-09T01:32:34.235Z,2.00
2023-04-09T01:33:34.378Z,4.00
2023-04-09T01:34:34.223Z,4.80
2023-04-09T01:35:34.277Z,4.80
2023-04-09T01:36:34.178Z,4.30
2023-04-09T01:37:34.271Z,5.00
2023-04-09T01:38:34.170Z,5.20
2023-04-09T01:39:34.433Z,0.90
2023-04-09T01:40:34.155Z,1.30
2023-04-09T01:41:34.200Z,2.20
2023-04-09T01:42:34.136Z,1.60
2023-04-09T01:43:34.222Z,1.40
2023-04-09T01:44:34.127Z,1.70
2023-04-09T01:45:34.238Z,4.80
2023-04-09T01:46:34.127Z,5.10
2023-04-09T01:47:34.189Z,5.20
2023-04-09T01:48:34.074Z,4.60
2023-04-09T01:49:34.155Z,4.60
2023-04-09T01:50:34.040Z,1.40
2023-04-09T01:51:34.169Z,1.70
2023-04-09T01:52:34.031Z,1.50
2023-04-09T01:53:34.110Z,1.30
2023-04-09T01:54:33.995Z,2.10
2023-04-09T01:55:34.098Z,1.70
2023-04-09T01:56:33.983Z,1.70
2023-04-09T01:57:34.126Z,1.90
2023-04-09T01:58:33.999Z,1.80
2023-04-09T01:59:34.132Z,2.30
2023-04-09T02:00:33.974Z,5.00
2023-04-09T02:01:34.137Z,5.40
2023-04-09T02:02:34.064Z,5.30
2023-04-09T02:03:34.243Z,5.10
2023-04-09T02:04:33.898Z,1.50
2023-04-09T02:05:33.993Z,1.20
2023-04-09T02:06:33.882Z,2.40
2023-04-09T02:07:33.982Z,2.70
2023-04-09T02:08:33.857Z,1.70
2023-04-09T02:09:33.996Z,1.90
2023-04-09T02:10:33.855Z,1.50
2023-04-09T02:11:34.016Z,1.20
2023-04-09T02:12:33.816Z,1.30
2023-04-09T02:13:33.920Z,4.70
2023-04-09T02:14:33.820Z,5.10
2023-04-09T02:15:33.954Z,4.90
2023-04-09T02:16:33.796Z,5.10
2023-04-09T02:17:33.978Z,5.40
2023-04-09T02:18:33.757Z,1.00
2023-04-09T02:19:33.892Z,1.40
2023-04-09T02:20:33.744Z,1.70
2023-04-09T02:21:56.914Z,1.60
2023-04-09T02:22:33.703Z,1.40
2023-04-09T02:23:56.824Z,2.40
2023-04-09T02:24:33.707Z,2.30
2023-04-09T02:25:36.969Z,1.30
2023-04-09T02:26:33.674Z,4.40
2023-04-09T02:27:35.761Z,5.30
2023-04-09T02:28:33.660Z,5.10
2023-04-09T02:29:33.839Z,5.30
2023-04-09T02:30:33.657Z,5.70
2023-04-09T02:31:33.781Z,0.70
2023-04-09T02:32:33.684Z,1.30
2023-04-09T02:33:33.756Z,2.00
2023-04-09T02:34:33.583Z,1.90
2023-04-09T02:35:33.833Z,3.00
2023-04-09T02:36:33.566Z,2.10
2023-04-09T02:37:33.692Z,3.00
2023-04-09T02:38:33.559Z,5.50
2023-04-09T02:39:33.707Z,5.30
2023-04-09T02:40:33.551Z,5.90
2023-04-09T02:41:33.713Z,5.30
2023-04-09T02:42:33.509Z,6.70
2023-04-09T02:43:33.618Z,1.40
2023-04-09T02:44:33.489Z,1.30
2023-04-09T02:45:33.666Z,1.50
2023-04-09T02:46:33.571Z,2.60
2023-04-09T02:47:33.658Z,1.90
2023-04-09T02:48:33.447Z,1.40
2023-04-09T02:49:33.567Z,2.60
2023-04-09T02:50:33.455Z,5.00
2023-04-09T02:51:33.619Z,5.50
2023-04-09T02:52:33.416Z,5.70
2023-04-09T02:53:33.608Z,5.60
2023-04-09T02:54:33.403Z,4.30
2023-04-09T02:55:33.512Z,1.50
2023-04-09T02:56:33.393Z,1.40
2023-04-09T02:57:33.736Z,1.70
2023-04-09T02:58:33.345Z,2.60
2023-04-09T02:59:33.442Z,2.00
2023-04-09T03:00:33.340Z,1.50
2023-04-09T03:01:35.656Z,2.00
2023-04-09T03:02:33.402Z,5.70
2023-04-09T03:03:54.613Z,6.30
2023-04-09T03:04:33.289Z,7.60
2023-04-09T03:05:54.377Z,6.10
2023-04-09T03:06:33.276Z,6.60
2023-04-09T03:07:33.316Z,3.10
2023-04-09T03:08:33.232Z,1.80
2023-04-09T03:09:33.308Z,1.50
2023-04-09T03:10:33.226Z,2.10
2023-04-09T03:11:34.256Z,2.40
2023-04-09T03:12:33.205Z,2.00
2023-04-09T03:13:33.282Z,1.90
2023-04-09T03:14:35.130Z,1.70
2023-04-09T03:15:33.256Z,2.40
2023-04-09T03:16:33.167Z,6.00
2023-04-09T03:17:33.298Z,6.90
2023-04-09T03:18:33.160Z,7.30
2023-04-09T03:19:33.173Z,6.80
2023-04-09T03:20:33.120Z,7.10
2023-04-09T03:21:33.184Z,1.40
2023-04-09T03:22:33.121Z,1.80
2023-04-09T03:23:33.196Z,2.10
2023-04-09T03:24:33.078Z,2.40
2023-04-09T03:25:33.115Z,1.60
2023-04-09T03:26:33.057Z,2.40
2023-04-09T03:27:33.133Z,2.00
2023-04-09T03:28:33.067Z,2.40
2023-04-09T03:29:33.149Z,6.20
2023-04-09T03:30:33.025Z,6.60
2023-04-09T03:31:33.140Z,7.10
2023-04-09T03:32:33.046Z,7.50
2023-04-09T03:33:33.072Z,2.00
2023-04-09T03:34:32.978Z,1.60
2023-04-09T03:35:33.083Z,1.90
2023-04-09T03:36:32.958Z,1.90
2023-04-09T03:37:33.040Z,3.00
2023-04-09T03:38:32.926Z,1.20
2023-04-09T03:39:33.015Z,2.30
2023-04-09T03:40:32.925Z,1.90
2023-04-09T03:41:33.023Z,5.30
2023-04-09T03:42:32.919Z,6.60
2023-04-09T03:43:32.931Z,6.60
2023-04-09T03:44:32.879Z,7.60
2023-04-09T03:45:32.948Z,3.60
2023-04-09T03:46:32.874Z,1.80
2023-04-09T03:47:32.964Z,2.80
2023-04-09T03:48:32.823Z,3.80
2023-04-09T03:49:33.906Z,2.90
2023-04-09T03:50:32.810Z,1.80
2023-04-09T03:51:32.933Z,2.10
2023-04-09T03:52:32.799Z,5.50
2023-04-09T03:53:32.901Z,6.40
2023-04-09T03:54:32.780Z,6.40
2023-04-09T03:55:32.920Z,6.80
2023-04-09T03:56:32.775Z,7.40
2023-04-09T03:57:57.094Z,7.00
2023-04-09T03:58:32.717Z,1.00
2023-04-09T03:59:34.732Z,1.70
2023-04-09T04:00:32.700Z,1.20
2023-04-09T04:01:32.886Z,1.20
2023-04-09T04:02:32.810Z,2.50
2023-04-09T04:03:33.004Z,1.80
2023-04-09T04:04:32.714Z,2.80
2023-04-09T04:05:32.781Z,1.90
2023-04-09T04:06:32.642Z,1.90
2023-04-09T04:07:32.815Z,5.70
2023-04-09T04:08:32.642Z,6.70
2023-04-09T04:09:32.720Z,7.70
2023-04-09T04:10:32.612Z,7.70
2023-04-09T04:11:32.729Z,6.80
2023-04-09T04:12:32.571Z,6.20
2023-04-09T04:13:32.783Z,1.50
2023-04-09T04:14:32.571Z,2.20
2023-04-09T04:15:32.657Z,1.90
2023-04-09T04:16:32.600Z,2.00
2023-04-09T04:17:32.683Z,2.70
2023-04-09T04:18:32.518Z,2.80
2023-04-09T04:19:32.613Z,2.50
2023-04-09T04:20:32.499Z,5.20
2023-04-09T04:21:32.593Z,6.30
2023-04-09T04:22:32.473Z,7.80
2023-04-09T04:23:32.605Z,7.60
2023-04-09T04:24:32.464Z,6.90
2023-04-09T04:25:32.614Z,2.80
2023-04-09T04:26:32.442Z,1.50
2023-04-09T04:27:32.522Z,2.00
2023-04-09T04:28:32.415Z,2.30
2023-04-09T04:29:32.542Z,1.90
2023-04-09T04:30:32.419Z,2.50
2023-04-09T04:31:32.540Z,2.60
2023-04-09T04:32:32.417Z,3.00
2023-04-09T04:33:32.474Z,2.40
2023-04-09T04:34:32.386Z,3.00
2023-04-09T04:35:32.504Z,6.70
2023-04-09T04:36:32.360Z,7.20
2023-04-09T04:37:32.507Z,6.50
2023-04-09T04:38:32.316Z,7.30
2023-04-09T04:39:33.428Z,6.90
2023-04-09T04:40:32.294Z,1.30
2023-04-09T04:41:32.479Z,1.10
2023-04-09T04:42:32.276Z,2.30
2023-04-09T04:43:32.464Z,4.00
2023-04-09T04:44:32.264Z,2.50
2023-04-09T04:55:07.796Z,2.00
2023-04-09T04:56:08.621Z,2.10
2023-04-09T04:57:09.827Z,3.20
2023-04-09T04:58:08.599Z,2.50
2023-04-09T04:59:08.877Z,2.80
2023-04-09T05:00:11.316Z,2.60
2023-04-09T05:01:08.746Z,5.50
2023-04-09T05:02:08.688Z,6.40
2023-04-09T05:03:08.818Z,6.70
2023-04-09T05:04:08.532Z,7.60
2023-04-09T05:05:08.675Z,3.50
2023-04-09T05:06:08.503Z,1.40
2023-04-09T05:07:08.718Z,3.20
2023-04-09T05:08:08.490Z,2.00
2023-04-09T05:09:08.671Z,2.80
2023-04-09T05:10:08.514Z,2.40
2023-04-09T05:11:08.717Z,3.00
2023-04-09T05:12:08.449Z,2.90
2023-04-09T05:13:08.613Z,3.30
2023-04-09T05:14:08.429Z,2.30
2023-04-09T05:15:08.664Z,6.70
2023-04-09T05:16:08.447Z,6.60
2023-04-09T05:17:08.675Z,6.90
2023-04-09T05:18:08.384Z,7.80
2023-04-09T05:19:12.896Z,7.00
2023-04-09T05:20:08.363Z,2.40
2023-04-09T05:21:08.440Z,1.80
2023-04-09T05:22:08.337Z,1.40
2023-04-09T05:23:08.520Z,2.00
2023-04-09T05:24:08.318Z,2.40
2023-04-09T05:25:08.403Z,3.20
2023-04-09T05:26:08.301Z,1.40
2023-04-09T05:27:08.419Z,2.60
2023-04-09T05:28:08.284Z,2.00
2023-04-09T05:29:09.321Z,2.10
2023-04-09T05:30:08.289Z,2.00
2023-04-09T05:31:08.439Z,2.80
2023-04-09T05:32:08.246Z,2.50
2023-04-09T05:33:08.333Z,3.20
2023-04-09T05:34:08.232Z,5.80
2023-04-09T05:35:08.381Z,7.40
2023-04-09T05:36:08.627Z,7.50
2023-04-09T05:37:08.311Z,7.30
2023-04-09T05:38:08.178Z,8.40
2023-04-09T05:39:08.298Z,7.50
2023-04-09T05:40:08.172Z,8.30
2023-04-09T05:41:08.296Z,2.10
2023-04-09T05:42:08.173Z,2.20
2023-04-09T05:43:08.219Z,2.10
2023-04-09T05:44:08.113Z,2.70
2023-04-09T05:45:08.135Z,2.70
2023-04-09T05:46:08.167Z,1.90
2023-04-09T05:47:08.179Z,3.20
2023-04-09T05:48:08.081Z,3.10
2023-04-09T05:49:08.160Z,3.50
2023-04-09T05:50:08.060Z,3.20
2023-04-09T05:51:08.172Z,4.60
2023-04-09T05:52:08.041Z,8.90
2023-04-09T05:53:08.104Z,10.60
2023-04-09T05:54:08.027Z,9.40
2023-04-09T05:55:08.157Z,9.60
2023-04-09T05:56:07.991Z,9.80
2023-04-09T05:57:08.095Z,2.00
2023-04-09T05:58:07.994Z,3.40
2023-04-09T05:59:09.019Z,4.40
2023-04-09T06:00:07.991Z,4.30
2023-04-09T06:01:08.078Z,9.70
2023-04-09T06:02:08.055Z,5.80
2023-04-09T06:03:08.162Z,5.60
2023-04-09T06:04:07.971Z,6.30
2023-04-09T06:05:08.043Z,9.60
2023-04-09T06:06:07.905Z,10.50
2023-04-09T06:07:10.016Z,9.70
2023-04-09T06:08:07.889Z,9.30
2023-04-09T06:09:08.996Z,10.10
2023-04-09T06:10:07.898Z,10.50
2023-04-09T06:11:08.909Z,3.10
2023-04-09T06:12:07.848Z,2.30
2023-04-09T06:13:28.910Z,3.30
2023-04-09T06:14:07.835Z,3.70
2023-04-09T06:15:09.937Z,3.30
2023-04-09T06:16:07.826Z,4.40
2023-04-09T06:17:09.901Z,5.20
2023-04-09T06:18:07.834Z,4.30
2023-04-09T06:19:07.875Z,8.60
2023-04-09T06:20:07.768Z,8.70
2023-04-09T06:21:07.864Z,10.40
2023-04-09T06:22:07.729Z,9.50
2023-04-09T06:23:07.902Z,10.00
2023-04-09T06:24:07.786Z,9.70
2023-04-09T06:25:07.823Z,10.00
2023-04-09T06:26:07.695Z,10.00
2023-04-09T06:27:07.827Z,2.70
2023-04-09T06:28:07.675Z,3.60
2023-04-09T06:29:07.829Z,3.60
2023-04-09T06:30:07.656Z,4.00
2023-04-09T06:31:07.828Z,3.20
2023-04-09T06:32:07.631Z,3.70
2023-04-09T06:33:07.816Z,8.10
2023-04-09T06:34:07.612Z,9.40
2023-04-09T06:35:09.725Z,8.90
2023-04-09T06:36:07.622Z,8.50
2023-04-09T06:37:07.678Z,8.80
2023-04-09T06:38:07.580Z,8.90
2023-04-09T06:39:07.680Z,10.00
2023-04-09T06:40:07.565Z,9.30
2023-04-09T06:41:07.811Z,9.20
2023-04-09T06:42:07.692Z,9.30
2023-04-09T06:43:07.600Z,10.00
2023-04-09T06:44:07.555Z,2.10
2023-04-09T06:45:07.941Z,2.40
2023-04-09T06:46:07.483Z,2.80
2023-04-09T06:47:07.681Z,4.00
2023-04-09T06:48:07.463Z,3.10
2023-04-09T06:49:07.571Z,5.60
2023-04-09T06:50:07.450Z,9.00
2023-04-09T06:51:07.613Z,8.70
2023-04-09T06:52:07.436Z,8.10
2023-04-09T06:53:07.579Z,9.50
2023-04-09T06:54:07.426Z,10.50
2023-04-09T06:55:07.490Z,9.40
2023-04-09T06:56:07.611Z,9.50
2023-04-09T06:57:07.457Z,9.90
2023-04-09T06:58:07.354Z,9.00
2023-04-09T06:59:07.553Z,9.70
2023-04-09T07:00:07.326Z,8.60
2023-04-09T07:01:08.512Z,5.80
2023-04-09T07:02:07.523Z,2.50
2023-04-09T07:03:07.409Z,4.10
2023-04-09T07:04:07.478Z,2.30
2023-04-09T07:05:08.489Z,4.70
2023-04-09T07:06:07.313Z,7.90
2023-04-09T07:07:07.637Z,8.60
2023-04-09T07:08:07.336Z,9.30
2023-04-09T07:09:07.414Z,9.60
2023-04-09T07:10:07.287Z,9.10
2023-04-09T07:11:07.403Z,9.00
2023-04-09T07:12:07.255Z,9.20
2023-04-09T07:13:07.352Z,8.80
2023-04-09T07:14:07.185Z,9.90
2023-04-09T07:15:07.635Z,8.80
2023-04-09T07:16:07.180Z,9.60
2023-04-09T07:17:07.236Z,9.60
2023-04-09T07:18:07.191Z,8.80
2023-04-09T07:19:07.254Z,8.20
2023-04-09T07:20:07.132Z,9.80
2023-04-09T07:21:07.297Z,9.00
2023-04-09T07:22:07.110Z,9.40
2023-04-09T07:23:07.168Z,8.90
2023-04-09T07:24:07.074Z,9.50
2023-04-09T07:25:07.189Z,1.90
2023-04-09T07:26:07.067Z,1.60
2023-04-09T07:27:07.159Z,2.90
2023-04-09T07:28:07.060Z,3.50
2023-04-09T07:29:07.231Z,2.90
2023-04-09T07:30:07.027Z,2.60
2023-04-09T07:31:07.172Z,7.60
2023-04-09T07:32:06.999Z,7.40
2023-04-09T07:33:07.133Z,7.80
2023-04-09T07:34:06.983Z,7.90
2023-04-09T07:35:07.109Z,8.40
2023-04-09T07:36:07.063Z,8.80
2023-04-09T07:37:07.018Z,8.30
2023-04-09T07:38:06.928Z,9.20
2023-04-09T07:39:06.997Z,8.40
2023-04-09T07:40:06.923Z,7.20
2023-04-09T07:41:08.029Z,8.30
2023-04-09T07:42:06.935Z,7.20
2023-04-09T07:43:06.914Z,7.90
2023-04-09T07:44:06.933Z,8.10
2023-04-09T07:45:06.952Z,8.20
2023-04-09T07:46:06.865Z,8.90
2023-04-09T07:47:07.959Z,8.70
2023-04-09T07:48:06.830Z,8.40
2023-04-09T07:49:06.879Z,7.90
2023-04-09T07:50:06.802Z,7.70
2023-04-09T07:51:06.903Z,6.90
2023-04-09T07:52:06.795Z,6.70
2023-04-09T07:53:06.946Z,7.40
2023-04-09T07:54:06.764Z,7.40
2023-04-09T07:55:06.819Z,6.30
2023-04-09T07:56:06.828Z,7.10
2023-04-09T07:57:06.926Z,6.70
2023-04-09T07:58:06.910Z,6.30
2023-04-09T07:59:06.945Z,6.60
2023-04-09T08:00:06.710Z,6.00
2023-04-09T08:01:06.809Z,6.30
2023-04-09T08:02:06.758Z,5.80
2023-04-09T08:03:07.057Z,6.80
2023-04-09T08:04:06.870Z,5.90
2023-04-09T08:05:06.880Z,6.20
2023-04-09T08:06:06.637Z,6.30
2023-04-09T08:07:06.728Z,6.20
2023-04-09T08:08:06.740Z,6.50
2023-04-09T08:09:06.697Z,7.10
2023-04-09T08:10:06.610Z,6.20
2023-04-09T08:11:06.707Z,5.80
2023-04-09T08:12:06.653Z,6.00
2023-04-09T08:13:06.614Z,5.30
2023-04-09T08:14:06.556Z,6.40
2023-04-09T08:15:06.622Z,5.30
2023-04-09T08:16:06.561Z,5.90
2023-04-09T08:17:06.626Z,4.90
2023-04-09T08:18:06.936Z,5.00
2023-04-09T08:19:06.571Z,6.30
2023-04-09T08:20:06.505Z,5.60
2023-04-09T08:21:06.493Z,5.40
2023-04-09T08:22:06.495Z,5.80
2023-04-09T08:23:06.586Z,6.40
2023-04-09T08:24:06.461Z,5.70
2023-04-09T08:25:06.465Z,5.60
2023-04-09T08:26:06.548Z,5.80
2023-04-09T08:27:06.440Z,5.60
2023-04-09T08:28:07.493Z,5.90
2023-04-09T08:29:06.417Z,5.40
2023-04-09T08:30:06.565Z,5.50
2023-04-09T08:31:06.398Z,5.90
2023-04-09T08:32:07.549Z,5.90
2023-04-09T08:33:06.411Z,5.10
2023-04-09T08:34:06.473Z,5.70
2023-04-09T08:35:06.355Z,5.50
2023-04-09T08:36:06.408Z,5.80
2023-04-09T08:37:06.336Z,5.30
2023-04-09T08:38:06.754Z,4.90
2023-04-09T08:39:06.301Z,5.10
2023-04-09T08:40:06.343Z,5.70
2023-04-09T08:41:06.288Z,4.70
2023-04-09T08:42:06.280Z,5.20
2023-04-09T08:43:06.258Z,5.10
2023-04-09T08:44:06.284Z,5.10
2023-04-09T08:45:06.258Z,6.10
2023-04-09T08:46:06.272Z,5.50
2023-04-09T08:47:06.218Z,5.00
2023-04-09T08:48:06.272Z,5.40
2023-04-09T08:49:06.206Z,5.50
2023-04-09T08:50:06.215Z,5.50
2023-04-09T08:51:06.196Z,4.50
2023-04-09T08:52:06.260Z,4.60
2023-04-09T08:53:06.177Z,5.20
2023-04-09T08:54:06.244Z,4.60
2023-04-09T08:55:06.195Z,4.80
2023-04-09T08:56:06.205Z,4.70
2023-04-09T08:57:06.135Z,4.70
2023-04-09T08:58:06.210Z,4.80
2023-04-09T08:59:06.094Z,4.50
2023-04-09T09:00:06.102Z,4.20
2023-04-09T09:01:06.091Z,4.60
2023-04-09T09:02:06.140Z,4.60
2023-04-09T09:03:06.379Z,4.60
2023-04-09T09:04:06.119Z,4.30
2023-04-09T09:05:06.029Z,4.20
2023-04-09T09:06:06.019Z,4.20
2023-04-09T09:07:06.005Z,5.20
2023-04-09T09:08:05.996Z,4.50
2023-04-09T09:09:06.003Z,4.40
2023-04-09T09:10:06.008Z,4.80
2023-04-09T09:11:05.971Z,5.00
2023-04-09T09:12:05.979Z,4.80
2023-04-09T09:13:05.949Z,4.50
2023-04-09T09:14:05.990Z,4.90
2023-04-09T09:15:05.927Z,5.30
2023-04-09T09:16:05.916Z,4.80
2023-04-09T09:17:06.026Z,5.10
2023-04-09T09:18:06.019Z,4.90
2023-04-09T09:19:05.892Z,4.30
2023-04-09T09:20:05.912Z,4.80
2023-04-09T09:21:05.854Z,4.20
2023-04-09T09:22:05.850Z,4.60
2023-04-09T09:23:05.866Z,3.90
2023-04-09T09:24:05.913Z,4.20
2023-04-09T09:25:05.833Z,4.20
2023-04-09T09:26:05.850Z,3.80
2023-04-09T09:27:05.818Z,3.60
2023-04-09T09:28:05.799Z,3.80
2023-04-09T09:29:05.983Z,3.80
2023-04-09T09:30:05.803Z,3.50
2023-04-09T09:31:05.767Z,3.80
2023-04-09T09:32:05.760Z,3.70
2023-04-09T09:33:05.745Z,4.10
2023-04-09T09:34:05.723Z,4.10
2023-04-09T09:35:05.725Z,4.20
2023-04-09T09:36:05.804Z,3.90
2023-04-09T09:37:06.821Z,4.30
2023-04-09T09:38:05.701Z,4.10
2023-04-09T09:39:05.686Z,3.80
2023-04-09T09:40:05.698Z,4.80
2023-04-09T09:41:05.658Z,4.00
2023-04-09T09:42:05.648Z,4.20
2023-04-09T09:43:05.633Z,5.10
2023-04-09T09:44:05.624Z,4.60
2023-04-09T09:45:05.614Z,5.00
2023-04-09T09:46:05.660Z,4.40
2023-04-09T09:47:05.609Z,5.00
2023-04-09T09:48:05.673Z,5.10
2023-04-09T09:49:05.598Z,4.70
2023-04-09T09:50:05.574Z,5.30
2023-04-09T09:51:05.544Z,5.00
2023-04-09T09:52:05.569Z,5.10
2023-04-09T09:53:05.537Z,5.60
2023-04-09T09:54:05.593Z,5.30
2023-04-09T09:55:05.512Z,5.20
2023-04-09T09:56:05.560Z,5.50
2023-04-09T09:57:05.487Z,5.30
2023-04-09T09:58:05.474Z,4.80
2023-04-09T09:59:05.495Z,4.90
2023-04-09T10:00:05.511Z,5.60
2023-04-09T10:01:05.464Z,4.90
2023-04-09T10:02:05.655Z,4.50
2023-04-09T10:03:05.679Z,5.70
2023-04-09T10:04:05.507Z,4.60
2023-04-09T10:05:05.397Z,5.10
2023-04-09T10:06:05.463Z,5.30
2023-04-09T10:07:05.394Z,4.80
2023-04-09T10:08:05.439Z,5.50
2023-04-09T10:09:05.412Z,5.20
2023-04-09T10:10:05.363Z,4.60
2023-04-09T10:11:05.344Z,4.70
2023-04-09T10:12:05.331Z,4.80
2023-04-09T10:13:05.332Z,4.70
2023-04-09T10:14:05.428Z,4.70
2023-04-09T10:15:05.293Z,4.60
2023-04-09T10:16:05.407Z,4.90
2023-04-09T10:17:05.278Z,4.60
2023-04-09T10:18:05.578Z,4.60
2023-04-09T10:19:05.285Z,4.30
2023-04-09T10:20:05.273Z,4.50
2023-04-09T10:21:05.240Z,4.90
2023-04-09T10:22:05.261Z,4.00
2023-04-09T10:23:05.212Z,4.80
2023-04-09T10:24:05.205Z,4.80
2023-04-09T10:25:05.210Z,4.40
2023-04-09T10:26:05.204Z,4.10
2023-04-09T10:27:05.174Z,3.80
2023-04-09T10:28:05.147Z,4.60
2023-04-09T10:29:05.150Z,3.70
2023-04-09T10:30:05.226Z,3.80
2023-04-09T10:31:05.169Z,3.90
2023-04-09T10:32:05.116Z,3.60
2023-04-09T10:33:05.132Z,4.10
2023-04-09T10:34:05.098Z,3.70
2023-04-09T10:35:05.080Z,3.70
2023-04-09T10:36:05.156Z,3.30
2023-04-09T10:37:05.072Z,3.20
2023-04-09T10:38:05.069Z,3.60
2023-04-09T10:39:05.056Z,3.30
2023-04-09T10:40:05.040Z,3.60
2023-04-09T10:41:05.066Z,3.20
2023-04-09T10:42:05.002Z,3.30
2023-04-09T10:43:04.997Z,3.30
2023-04-09T10:44:05.021Z,3.10
2023-04-09T10:45:04.980Z,3.30
2023-04-09T10:46:05.010Z,2.90
2023-04-09T10:47:04.970Z,3.20
2023-04-09T10:48:04.983Z,3.70
2023-04-09T10:49:04.940Z,3.20
2023-04-09T10:50:05.035Z,3.10
2023-04-09T10:51:04.915Z,3.40
2023-04-09T10:52:04.965Z,3.20
2023-04-09T10:53:04.898Z,3.00
2023-04-09T10:54:04.909Z,3.30
2023-04-09T10:55:04.871Z,3.20
2023-04-09T10:56:04.875Z,3.60
2023-04-09T10:57:04.875Z,3.40
2023-04-09T10:58:04.949Z,3.40
2023-04-09T10:59:04.827Z,3.50
2023-04-09T11:00:04.847Z,2.70
2023-04-09T11:01:04.801Z,3.90
2023-04-09T11:02:04.871Z,3.40
2023-04-09T11:03:04.980Z,2.90
2023-04-09T11:04:04.785Z,3.40
2023-04-09T11:05:04.828Z,3.10
2023-04-09T11:06:04.799Z,3.30
2023-04-09T11:07:04.745Z,3.20
2023-04-09T11:08:04.751Z,3.20
2023-04-09T11:09:04.729Z,3.20
2023-04-09T11:10:04.732Z,3.60
2023-04-09T11:11:04.755Z,2.90
2023-04-09T11:12:04.715Z,3.00
2023-04-09T11:13:04.710Z,2.90
2023-04-09T11:14:04.718Z,3.00
2023-04-09T11:15:04.656Z,3.20
2023-04-09T11:16:04.675Z,3.20
2023-04-09T11:17:04.638Z,2.90
2023-04-09T11:18:04.657Z,3.00
2023-04-09T11:19:04.650Z,2.70
2023-04-09T11:20:04.640Z,3.10
2023-04-09T11:21:04.680Z,3.10
2023-04-09T11:22:04.614Z,3.20
2023-04-09T11:23:04.589Z,3.10
2023-04-09T11:24:04.606Z,3.20
2023-04-09T11:25:04.554Z,3.00
2023-04-09T11:26:04.586Z,3.30
2023-04-09T11:27:04.543Z,2.80
2023-04-09T11:28:04.587Z,3.40
2023-04-09T11:29:04.518Z,3.30
2023-04-09T11:30:04.532Z,2.90
2023-04-09T11:31:04.542Z,2.90
2023-04-09T11:32:04.585Z,2.70
2023-04-09T11:33:04.519Z,2.80
2023-04-09T11:34:04.489Z,2.50
2023-04-09T11:35:04.451Z,2.50
2023-04-09T11:36:04.503Z,2.40
2023-04-09T11:37:04.425Z,2.90
2023-04-09T11:38:04.430Z,2.80
2023-04-09T11:39:04.418Z,3.00
2023-04-09T11:40:04.403Z,3.50
2023-04-09T11:41:04.391Z,2.50
2023-04-09T11:42:04.434Z,2.60
2023-04-09T11:43:04.374Z,3.10
2023-04-09T11:44:04.383Z,2.90
2023-04-09T11:45:04.338Z,2.90
2023-04-09T11:46:04.335Z,3.10
2023-04-09T11:47:04.419Z,2.70
2023-04-09T11:48:04.428Z,3.10
2023-04-09T11:49:04.316Z,3.40
2023-04-09T11:50:04.391Z,2.90
2023-04-09T11:51:04.296Z,2.40
2023-04-09T11:52:04.284Z,3.20
2023-04-09T11:53:04.267Z,3.10
2023-04-09T11:54:04.264Z,2.60
2023-04-09T11:55:04.241Z,2.90
2023-04-09T11:56:04.259Z,2.60
2023-04-09T11:57:04.221Z,2.60
2023-04-09T11:58:04.217Z,2.70
2023-04-09T11:59:04.191Z,2.60
2023-04-09T12:00:05.324Z,3.30
2023-04-09T12:01:04.192Z,2.50
2023-04-09T12:02:04.283Z,2.90
2023-04-09T12:03:04.785Z,2.80
2023-04-09T12:04:04.363Z,2.70
2023-04-09T12:05:04.182Z,2.80
2023-04-09T12:06:04.252Z,3.30
2023-04-09T12:07:04.110Z,2.50
2023-04-09T12:08:04.168Z,3.20
2023-04-09T12:09:04.097Z,2.80
2023-04-09T12:10:04.244Z,3.40
2023-04-09T12:11:04.062Z,2.90
2023-04-09T12:12:04.098Z,3.20
2023-04-09T12:13:04.059Z,3.40
2023-04-09T12:14:04.179Z,3.60
2023-04-09T12:15:04.043Z,3.10
2023-04-09T12:16:04.133Z,3.60
2023-04-09T12:17:04.041Z,3.20
2023-04-09T12:18:04.119Z,3.20
2023-04-09T12:19:04.015Z,3.10
2023-04-09T12:20:04.002Z,3.60
2023-04-09T12:21:03.978Z,3.80
2023-04-09T12:22:03.991Z,2.80
2023-04-09T12:23:03.961Z,3.00
2023-04-09T12:24:03.965Z,3.30
2023-04-09T12:25:03.927Z,3.00
2023-04-09T12:26:04.020Z,2.80
2023-04-09T12:27:03.929Z,3.20
2023-04-09T12:28:03.970Z,3.30
2023-04-09T12:29:03.883Z,2.90
2023-04-09T12:30:03.894Z,3.20
2023-04-09T12:31:03.953Z,2.90
2023-04-09T12:32:03.991Z,3.00
2023-04-09T12:33:03.929Z,2.50
2023-04-09T12:34:03.862Z,3.20
2023-04-09T12:35:03.829Z,2.40
2023-04-09T12:36:03.897Z,2.60
2023-04-09T12:37:03.824Z,2.80
2023-04-09T12:38:03.801Z,2.90
2023-04-09T12:39:03.785Z,2.50
2023-04-09T12:40:03.803Z,2.80
2023-04-09T12:41:03.756Z,2.90
2023-04-09T12:42:03.784Z,2.40
2023-04-09T12:43:03.765Z,3.20
2023-04-09T12:44:03.737Z,3.10
2023-04-09T12:45:03.720Z,2.70
2023-04-09T12:46:03.744Z,2.40
2023-04-09T12:47:03.703Z,2.80
2023-04-09T12:48:03.773Z,2.80
2023-04-09T12:49:03.679Z,3.10
2023-04-09T12:50:03.672Z,2.80
2023-04-09T12:51:03.658Z,3.00
2023-04-09T12:52:03.651Z,2.30
2023-04-09T12:53:03.650Z,3.00
2023-04-09T12:54:03.677Z,2.50
2023-04-09T12:55:03.613Z,2.60
2023-04-09T12:56:03.660Z,3.00
2023-04-09T12:57:03.609Z,3.00
2023-04-09T12:58:03.616Z,2.70
2023-04-09T12:59:03.575Z,2.90
2023-04-09T13:00:03.577Z,2.80
2023-04-09T13:01:03.578Z,3.50
2023-04-09T13:02:03.695Z,3.20
2023-04-09T13:03:03.646Z,2.40
2023-04-09T13:04:03.613Z,2.40
2023-04-09T13:05:03.509Z,2.70
2023-04-09T13:06:03.503Z,2.40
2023-04-09T13:07:03.511Z,2.40
2023-04-09T13:08:03.545Z,3.10
2023-04-09T13:09:03.495Z,2.70
2023-04-09T13:10:03.506Z,3.40
2023-04-09T13:11:03.451Z,3.00
2023-04-09T13:12:03.492Z,3.00
2023-04-09T13:13:03.457Z,3.20
2023-04-09T13:14:03.437Z,3.00
2023-04-09T13:15:03.451Z,3.00
2023-04-09T13:16:03.418Z,2.40
2023-04-09T13:17:03.424Z,2.40
2023-04-09T13:18:03.517Z,2.40
2023-04-09T13:19:03.363Z,2.60
2023-04-09T13:20:03.442Z,2.40
2023-04-09T13:21:03.374Z,2.90
2023-04-09T13:22:03.370Z,2.70
2023-04-09T13:23:03.338Z,3.40
2023-04-09T13:24:03.349Z,2.90
2023-04-09T13:25:03.341Z,2.50
2023-04-09T13:26:03.386Z,2.60
2023-04-09T13:27:03.297Z,2.70
2023-04-09T13:28:03.367Z,2.40